x

Capers Nearshore (cap 2) (41029) Weather Station

3:08am - Sat 27th May 2017 All times are EDT. -4 hours from GMT.

  • Wind
    13mph, 18mph gusts
  • Sea Temp 76°f
  • Air Temp 80°f
  • Sea Pressure 1015.9mb
  • Capers Nearshore (cap 2)
  • Capers Nearshore (cap 2)

More Historic Weather Station data

Upgrade to MSW Pro to gain access to the past 30 days of data for over 8000 Wavebouys and Weather Stations around the globe.

Join Pro

Comparision Forecast

View Surf forecast
   
Sat 05/27 3:08am 13 18 mph 1015.9mb 76f 80f
2:08am 11 13 mph 1016mb 76f 80f
1:08am 11 16 mph 1016mb 76f 81f
12:08am 11 16 mph 1015.9mb 76f 81f
Fri 05/26 11:08pm 11 18 mph 1015.6mb 76f 80f
10:08pm 11 18 mph 1015.1mb 76f 81f
9:08pm 13 20 mph 1014.5mb 76f 81f
8:08pm 16 20 mph 1014.1mb 76f 81f
7:08pm 20 27 mph 1013.8mb 76f 81f
6:08pm 20 25 mph 1013.9mb 76f 81f
5:08pm 20 27 mph 1013.9mb 76f 81f
4:08pm 20 29 mph 1014.1mb 76f 80f
3:08pm 20 27 mph 1014.8mb 76f 80f
2:08pm 16 22 mph 1015.2mb 76f 80f
1:08pm 13 18 mph 1015.6mb 76f 80f
12:08pm 11 16 mph 1016mb 76f 80f
11:08am 13 20 mph 1015.8mb 76f 79f
10:08am 13 18 mph 1016mb 76f 77f
9:08am 13 20 mph 1016.1mb 76f 76f
8:08am 13 20 mph 1016mb 76f 74f
7:08am 18 25 mph 1015.1mb 76f 73f
6:08am 16 20 mph 1014.4mb 76f 74f
5:08am 16 22 mph 1013.6mb 76f 74f
4:08am 18 25 mph 1012.9mb 76f 76f
3:08am 20 25 mph 1012.5mb 76f 77f
2:08am 22 27 mph 1012.3mb 76f 78f
1:08am 20 25 mph 1012.4mb 76f 78f
Thu 05/25 11:08pm 20 27 mph 1011.4mb 76f 79f
10:08pm 18 25 mph 1010.5mb 77f 79f
9:08pm 20 27 mph 1009.4mb 77f 79f
8:08pm 20 27 mph 1008.2mb 77f 79f
7:08pm 22 29 mph 1007.3mb 77f 80f
6:08pm 22 29 mph 1006.6mb 77f 80f
5:08pm 22 31 mph 1006.4mb 77f 80f
4:08pm 22 29 mph 1006.2mb 77f 79f
3:08pm 25 31 mph 1006.2mb 77f 78f
2:08pm 22 31 mph 1006mb 77f 77f
1:08pm 22 29 mph 1005.5mb 77f 77f
12:08pm 25 31 mph 1005.4mb 77f 77f
11:08am 25 34 mph 1004.9mb 77f 76f
10:08am 22 29 mph 1005.2mb 77f 75f
9:08am 22 31 mph 1005.3mb 77f 74f
8:08am 22 31 mph 1004.7mb 77f 74f
7:08am 22 27 mph 1003.6mb 77f 74f
6:08am 22 29 mph 1002.4mb 77f 75f
5:08am 22 29 mph 1001.6mb 77f 78f
4:08am 25 34 mph 1000.7mb 77f 78f
3:08am 25 36 mph 1000.8mb 77f 78f
2:08am 25 34 mph 1000.7mb 77f 80f
1:08am 25 36 mph 1001mb 77f 80f
12:08am 22 31 mph 1001.3mb 77f 80f
Wed 05/24 11:08pm 22 29 mph 1000.7mb 77f 79f
10:08pm 20 27 mph 1000.9mb 77f 80f
9:08pm 25 34 mph 1000.8mb 78f 80f
8:08pm 22 34 mph 1000.4mb 77f 79f
7:08pm 25 36 mph 1000.9mb 77f 79f
6:08pm 20 29 mph 1001.5mb 77f 77f
5:08pm 20 29 mph 1001.2mb 77f 75f
4:08pm 29 38 mph 1003.2mb 77f 76f
3:08pm 31 47 mph 1003.9mb 77f 79f
2:08pm 22 34 mph 1004.8mb 77f 80f
1:08pm 20 27 mph 1004.6mb 77f 80f
12:08pm 18 25 mph 1004.9mb 77f 81f
11:08am 20 25 mph 1004.7mb 77f 80f
10:08am 20 27 mph 1004.9mb 77f 80f
9:08am 20 27 mph 1005.1mb 77f 79f
8:08am 18 22 mph 1004.9mb 76f 78f
7:08am 16 25 mph 1005.1mb 76f 77f
6:08am 25 34 mph 1004.6mb 75f 76f
5:08am 20 29 mph 1004.5mb 75f 79f
4:08am 20 29 mph 1004.6mb 75f 80f
3:08am 27 36 mph 1004.7mb 75f 80f
2:08am 22 31 mph 1005mb 76f 80f
1:08am 22 29 mph 1005.5mb 76f 79f
12:08am 18 25 mph 1005.4mb 75f 78f
Tue 05/23 11:08pm 20 29 mph 1006.3mb 76f 76f
10:08pm 16 20 mph 1006.3mb 76f 76f
9:08pm 13 22 mph 1006.6mb 76f 75f
8:08pm 4 9 mph 1007.4mb 75f 72f
7:08pm 18 25 mph 1006.7mb 76f 78f
6:08pm 16 20 mph 1006.7mb 76f 78f
5:08pm 9 13 mph 1007.9mb 76f 76f
4:08pm 16 22 mph 1007.9mb 76f 75f
3:08pm 18 25 mph 1008.6mb 77f 75f
2:08pm 20 27 mph 1008.5mb 77f 79f
1:08pm 16 22 mph 1009.1mb 76f 79f
12:08pm 16 20 mph 1010.2mb 76f 79f
11:08am 13 20 mph 1010.6mb 75f 78f
10:08am 18 22 mph 1010.6mb 75f 78f
9:08am 16 22 mph 1011.2mb 75f 79f
8:08am 18 25 mph 1010.9mb 76f 79f